Time;durP1;ratioP1;P1;durP2;ratioP2;P2;SDS_P1;SDS_P2;PMS_P1;PMS_P2;Temp;Humidity;BMP_temperature;BMP_pressure;BME280_temperature;BME280_humidity;BME280_pressure;Samples;Min_cycle;Max_cycle;Signal;HPM_P1;HPM_P2
2023/10/02 00:02:06;;;;;;;13.13;5.13;;;13.00;94.60;;;;;;6066750;23;20841;-80
2023/10/02 00:04:36;;;;;;;8.00;4.77;;;15.50;95.60;;;;;;6061459;23;20985;-80
2023/10/02 00:07:06;;;;;;;9.40;5.00;;;12.90;94.60;;;;;;6090141;23;20469;-79
2023/10/02 00:09:35;;;;;;;19.13;6.80;;;12.90;94.40;;;;;;6057119;23;20445;-82
2023/10/02 00:12:11;;;;;;;11.57;7.70;;;12.90;94.30;;;;;;6051607;23;20471;-82
2023/10/02 00:14:38;;;;;;;14.30;6.20;;;12.90;94.70;;;;;;6071517;23;20840;-79
2023/10/02 00:17:07;;;;;;;10.73;6.83;;;12.90;94.90;;;;;;6057550;23;21191;-81
2023/10/02 00:19:38;;;;;;;10.00;5.67;;;12.90;94.60;;;;;;6061987;23;21042;-79
2023/10/02 00:22:08;;;;;;;10.30;5.77;;;12.70;94.70;;;;;;6068464;23;20811;-80
2023/10/02 00:24:39;;;;;;;5.37;4.30;;;12.40;95.00;;;;;;6062091;23;20560;-80
2023/10/02 00:27:10;;;;;;;9.80;6.33;;;12.30;95.30;;;;;;6058105;23;20445;-80
2023/10/02 00:29:51;;;;;;;12.43;6.23;;;12.00;95.70;;;;;;6053409;23;20450;-82
2023/10/02 00:32:20;;;;;;;15.10;7.07;;;11.80;95.90;;;;;;6083523;23;20827;-81
2023/10/02 00:34:50;;;;;;;10.97;5.17;;;11.80;96.10;;;;;;6066776;23;20790;-80
2023/10/02 00:37:20;;;;;;;11.00;5.40;;;11.70;96.50;;;;;;6066974;23;20451;-79
2023/10/02 00:39:50;;;;;;;12.70;6.73;;;11.70;96.90;;;;;;6067551;23;20448;-78
2023/10/02 00:42:25;;;;;;;12.63;5.90;;;11.60;97.70;;;;;;6072151;23;20795;-81
2023/10/02 00:44:52;;;;;;;9.47;5.10;;;11.60;98.20;;;;;;6068855;23;20535;-81
2023/10/02 00:47:41;;;;;;;10.77;5.30;;;11.70;98.50;;;;;;6071485;23;20444;-80
2023/10/02 00:59:48;;;;;;;9.40;4.30;;;11.50;98.50;;;;;;5034664;27;20574;-69
2023/10/02 01:02:17;;;;;;;11.10;5.53;;;11.60;98.30;;;;;;5016239;28;21119;-70
2023/10/02 01:04:44;;;;;;;12.00;4.63;;;11.70;97.90;;;;;;5010662;28;20489;-69
2023/10/02 01:07:15;;;;;;;10.43;3.80;;;11.90;97.40;;;;;;5010772;28;20828;-70
2023/10/02 01:10:06;;;;;;;11.63;4.47;;;11.90;97.10;;;;;;5013073;28;20517;-69
2023/10/02 01:12:38;;;;;;;14.13;4.97;;;12.00;96.70;;;;;;5000609;28;21378;-70
2023/10/02 01:15:11;;;;;;;13.97;3.60;;;12.00;96.50;;;;;;5010978;28;20554;-69
2023/10/02 01:17:39;;;;;;;11.93;4.50;;;12.10;96.30;;;;;;4983061;28;20481;-71
2023/10/02 01:20:20;;;;;;;16.20;5.13;;;12.10;96.00;;;;;;5012476;28;20473;-69
2023/10/02 01:22:51;;;;;;;9.43;4.50;;;12.20;96.10;;;;;;5022575;28;20486;-70
2023/10/02 01:25:23;;;;;;;6.27;4.90;;;12.10;96.10;;;;;;5012292;28;20485;-70
2023/10/02 01:27:53;;;;;;;10.20;4.07;;;12.00;96.40;;;;;;5043790;28;20480;-69
2023/10/02 01:30:22;;;;;;;9.83;4.20;;;11.90;96.80;;;;;;5013923;28;20516;-69
2023/10/02 01:33:11;;;;;;;20.00;4.03;;;;;;;;;;5015266;28;20473;-70
2023/10/02 01:35:44;;;;;;;6.90;4.37;;;11.80;96.80;;;;;;5016550;28;20469;-70
2023/10/02 01:38:13;;;;;;;13.20;3.53;;;11.90;96.40;;;;;;5008443;28;20479;-70
2023/10/02 01:40:45;;;;;;;7.47;4.10;;;11.90;96.10;;;;;;5016753;28;20866;-70
2023/10/02 01:43:14;;;;;;;13.03;5.00;;;12.00;96.00;;;;;;5015588;28;20511;-70
2023/10/02 01:45:45;;;;;;;9.27;5.17;;;12.00;96.10;;;;;;5009755;28;20483;-71
2023/10/02 01:48:14;;;;;;;20.30;4.70;;;11.80;96.30;;;;;;5028862;28;20512;-70
2023/10/02 01:50:44;;;;;;;11.27;4.33;;;11.70;96.30;;;;;;5022784;28;20491;-70
2023/10/02 01:53:28;;;;;;;9.53;4.17;;;11.70;96.50;;;;;;5025275;28;21050;-70
2023/10/02 01:56:10;;;;;;;8.37;3.93;;;11.80;96.10;;;;;;5010261;28;20491;-69
2023/10/02 01:58:39;;;;;;;7.60;4.27;;;11.80;95.90;;;;;;5011204;28;21077;-70
2023/10/02 02:01:09;;;;;;;12.43;4.10;;;;;;;;;;5006292;28;21198;-69
2023/10/02 02:03:37;;;;;;;14.00;4.67;;;11.90;95.60;;;;;;5019414;28;20492;-71
2023/10/02 02:06:08;;;;;;;9.40;4.37;;;11.90;95.80;;;;;;5010062;28;20475;-70
2023/10/02 02:08:36;;;;;;;8.73;3.97;;;11.90;95.90;;;;;;5025250;28;20474;-69
2023/10/02 02:11:16;;;;;;;8.27;3.50;;;11.90;95.60;;;;;;5018250;28;20487;-69
2023/10/02 02:13:47;;;;;;;21.03;3.83;;;11.90;95.50;;;;;;5005817;28;20491;-68
2023/10/02 02:16:16;;;;;;;9.83;3.27;;;11.90;95.50;;;;;;4997838;28;20539;-68
2023/10/02 02:18:45;;;;;;;10.93;5.80;;;11.90;95.50;;;;;;4993524;28;20477;-68
2023/10/02 02:21:16;;;;;;;33.43;5.63;;;11.90;95.30;;;;;;4984060;28;20486;-68
2023/10/02 02:23:45;;;;;;;12.40;4.53;;;11.90;95.20;;;;;;5006980;28;20486;-70
2023/10/02 02:26:21;;;;;;;9.83;3.90;;;11.90;95.20;;;;;;4996713;28;20572;-70
2023/10/02 02:28:51;;;;;;;12.70;4.00;;;11.90;95.10;;;;;;4999661;28;20480;-70
2023/10/02 02:31:30;;;;;;;20.57;5.47;;;11.90;95.40;;;;;;5011545;28;21067;-69
2023/10/02 02:34:02;;;;;;;7.57;3.00;;;11.90;95.40;;;;;;5022767;28;20487;-68
2023/10/02 02:36:34;;;;;;;9.53;2.93;;;11.70;95.30;;;;;;5014053;28;20516;-71
2023/10/02 02:39:17;;;;;;;7.50;2.83;;;11.70;95.30;;;;;;5020449;28;20511;-69
2023/10/02 02:42:08;;;;;;;27.00;4.67;;;11.70;95.20;;;;;;5019701;28;20475;-68
2023/10/02 02:44:43;;;;;;;13.10;3.57;;;11.60;95.30;;;;;;4993918;28;20471;-69
2023/10/02 02:47:09;;;;;;;11.40;2.77;;;11.40;95.50;;;;;;4991870;28;20479;-70
2023/10/02 02:49:50;;;;;;;14.13;4.40;;;11.30;95.80;;;;;;5006786;28;20564;-70
2023/10/02 02:52:19;;;;;;;10.03;3.00;;;11.20;95.90;;;;;;5004594;28;20485;-70
2023/10/02 02:54:47;;;;;;;4.87;2.80;;;11.20;95.70;;;;;;5014765;28;20563;-70
2023/10/02 02:57:18;;;;;;;6.37;3.20;;;11.20;96.10;;;;;;5009556;28;20531;-71
2023/10/02 02:59:46;;;;;;;10.43;4.60;;;11.10;96.30;;;;;;4997912;28;20486;-70
2023/10/02 03:02:21;;;;;;;11.30;4.17;;;11.20;96.50;;;;;;4988924;28;20495;-70
2023/10/02 03:04:50;;;;;;;8.50;3.80;;;11.20;96.50;;;;;;5006283;28;20552;-69
2023/10/02 03:07:29;;;;;;;22.67;4.87;;;11.20;96.80;;;;;;5004827;28;20469;-68
2023/10/02 03:09:58;;;;;;;17.47;4.20;;;11.00;96.90;;;;;;5014050;28;20508;-69
2023/10/02 03:12:27;;;;;;;6.60;4.90;;;10.90;96.60;;;;;;5012589;28;20483;-69
2023/10/02 03:14:55;;;;;;;9.67;2.73;;;10.80;96.70;;;;;;4998228;28;20539;-68
2023/10/02 03:17:29;;;;;;;9.30;3.10;;;10.90;96.60;;;;;;4993753;28;20492;-71
2023/10/02 03:20:00;;;;;;;6.60;3.10;;;10.90;96.40;;;;;;5018757;28;20480;-68
2023/10/02 03:22:32;;;;;;;8.47;3.30;;;11.00;96.30;;;;;;4998383;28;20481;-69
2023/10/02 03:25:24;;;;;;;6.00;3.90;;;11.00;96.30;;;;;;5007858;28;21290;-68
2023/10/02 03:27:48;;;;;;;8.60;4.47;;;10.90;97.10;;;;;;5003876;28;20484;-70
2023/10/02 03:30:35;;;;;;;20.40;4.23;;;10.90;97.50;;;;;;5023532;28;20480;-69
2023/10/02 03:33:02;;;;;;;5.53;3.10;;;10.90;97.00;;;;;;5026117;28;20516;-70
2023/10/02 03:35:29;;;;;;;17.23;3.77;;;10.90;96.60;;;;;;5018208;28;20956;-71
2023/10/02 03:37:55;;;;;;;19.07;4.40;;;11.00;96.50;;;;;;5048575;28;20476;-69
2023/10/02 03:40:25;;;;;;;13.27;3.57;;;11.00;96.10;;;;;;4993078;28;20500;-70
2023/10/02 03:42:55;;;;;;;11.37;4.60;;;10.90;96.10;;;;;;4998470;28;20486;-71
2023/10/02 03:45:38;;;;;;;8.57;3.60;;;10.90;95.90;;;;;;5000703;28;21030;-68
2023/10/02 03:48:07;;;;;;;6.07;3.30;;;11.00;95.90;;;;;;4997430;28;20507;-70
2023/10/02 03:50:37;;;;;;;28.70;4.43;;;11.00;95.90;;;;;;4997354;28;20836;-70
2023/10/02 03:53:12;;;;;;;7.57;3.57;;;11.00;96.20;;;;;;5001919;28;20482;-69
2023/10/02 03:55:40;;;;;;;16.83;4.17;;;11.00;96.20;;;;;;5011626;28;20487;-71
2023/10/02 03:58:09;;;;;;;24.17;3.77;;;11.00;95.90;;;;;;4999686;28;22056;-71
2023/10/02 04:00:43;;;;;;;11.30;3.70;;;10.90;95.80;;;;;;4996456;28;20547;-70
2023/10/02 04:03:10;;;;;;;11.57;5.20;;;10.90;95.70;;;;;;4995146;28;20486;-71
2023/10/02 04:05:42;;;;;;;9.07;3.30;;;10.90;95.40;;;;;;5004410;28;20549;-69
2023/10/02 04:08:21;;;;;;;3.80;3.03;;;10.90;95.40;;;;;;5003442;28;21181;-70
2023/10/02 04:13:39;;;;;;;15.70;4.07;;;10.90;95.60;;;;;;4996076;28;20552;-71
2023/10/02 04:18:58;;;;;;;7.03;3.97;;;;;;;;;;5004442;28;20497;-70
2023/10/02 04:21:25;;;;;;;16.33;4.13;;;10.90;95.10;;;;;;4998912;28;20829;-69
2023/10/02 04:23:53;;;;;;;5.30;3.97;;;10.90;95.10;;;;;;4999818;28;20488;-70
2023/10/02 04:26:20;;;;;;;31.03;4.60;;;10.80;95.10;;;;;;5004081;28;20947;-71
2023/10/02 04:28:54;;;;;;;8.03;5.10;;;10.70;95.20;;;;;;4998883;28;20474;-71
2023/10/02 04:31:27;;;;;;;14.60;5.53;;;10.50;95.80;;;;;;4973025;28;20596;-68
2023/10/02 04:34:15;;;;;;;9.87;3.80;;;10.20;96.10;;;;;;4998561;28;20473;-69
2023/10/02 04:36:42;;;;;;;18.53;3.67;;;10.10;96.30;;;;;;5012901;28;20469;-69
2023/10/02 04:39:51;;;;;;;16.73;4.70;;;10.20;96.30;;;;;;5006568;28;20483;-69
2023/10/02 04:42:12;;;;;;;10.30;3.40;;;10.30;95.90;;;;;;5033339;28;20919;-69
2023/10/02 04:44:56;;;;;;;10.10;4.50;;;10.30;95.90;;;;;;5016272;28;20488;-71
2023/10/02 04:47:23;;;;;;;12.73;3.47;;;10.30;96.20;;;;;;5010254;28;20516;-68
2023/10/02 04:55:24;;;;;;;4.80;2.60;;;10.40;95.70;;;;;;5006467;28;20544;-68
2023/10/02 04:57:52;;;;;;;8.87;3.83;;;10.50;95.50;;;;;;5013929;28;20575;-70
2023/10/02 05:00:32;;;;;;;33.43;4.30;;;10.50;95.30;;;;;;5016327;28;20480;-69
2023/10/02 05:03:17;;;;;;;4.43;3.87;;;10.50;95.20;;;;;;5009441;28;20477;-69
2023/10/02 05:05:48;;;;;;;8.90;4.40;;;10.60;95.20;;;;;;5010084;28;20493;-70
2023/10/02 05:08:20;;;;;;;4.97;2.70;;;10.50;95.30;;;;;;4995323;28;20569;-70
2023/10/02 05:10:49;;;;;;;7.27;3.13;;;10.50;95.10;;;;;;5007280;28;21073;-69
2023/10/02 05:13:44;;;;;;;22.97;4.13;;;10.40;95.20;;;;;;5002300;28;20737;-70
2023/10/02 05:16:12;;;;;;;6.07;3.53;;;10.40;95.30;;;;;;5005056;28;20943;-71
2023/10/02 05:18:44;;;;;;;9.00;3.27;;;10.40;95.40;;;;;;5003431;28;20550;-70
2023/10/02 05:21:10;;;;;;;5.07;2.70;;;10.30;95.40;;;;;;5006633;28;20476;-69
2023/10/02 05:23:38;;;;;;;8.63;4.93;;;10.30;95.30;;;;;;5017935;28;20844;-70
2023/10/02 05:26:05;;;;;;;8.97;4.80;;;10.30;95.30;;;;;;4995901;28;20491;-70
2023/10/02 05:28:44;;;;;;;7.93;3.93;;;10.30;95.30;;;;;;4994735;28;20976;-71
2023/10/02 05:31:16;;;;;;;9.27;4.40;;;10.30;95.40;;;;;;5012081;28;20488;-69
2023/10/02 05:33:43;;;;;;;8.63;4.80;;;;;;;;;;5015161;28;20485;-70
2023/10/02 05:36:15;;;;;;;16.57;4.17;;;10.30;95.20;;;;;;4999268;28;20902;-70
2023/10/02 05:39:05;;;;;;;28.20;5.10;;;10.20;95.20;;;;;;5013378;28;20535;-70
2023/10/02 05:41:38;;;;;;;7.40;3.73;;;10.10;95.40;;;;;;4994445;28;20504;-69
2023/10/02 05:44:12;;;;;;;6.97;2.97;;;10.10;95.60;;;;;;5017421;28;20850;-69
2023/10/02 05:46:55;;;;;;;6.93;3.23;;;10.10;95.50;;;;;;5006697;28;20495;-70
2023/10/02 05:49:23;;;;;;;6.37;3.43;;;10.00;95.90;;;;;;5006234;28;21098;-69
2023/10/02 05:51:55;;;;;;;8.57;4.40;;;10.10;95.90;;;;;;5021684;28;20602;-71
2023/10/02 05:54:26;;;;;;;11.13;3.60;;;10.10;95.80;;;;;;5015008;28;20485;-69
2023/10/02 05:57:08;;;;;;;7.70;4.00;;;10.00;95.80;;;;;;5013215;28;20491;-70
2023/10/02 05:59:43;;;;;;;11.37;3.97;;;9.90;96.60;;;;;;4992378;28;20589;-71
2023/10/02 06:02:12;;;;;;;14.10;4.10;;;9.90;96.80;;;;;;4992780;28;20469;-71
2023/10/02 06:04:43;;;;;;;17.23;4.80;;;9.80;96.80;;;;;;5000494;28;20539;-70
2023/10/02 06:07:11;;;;;;;9.87;4.63;;;9.80;97.00;;;;;;4974203;28;20990;-68
2023/10/02 06:09:44;;;;;;;20.63;4.63;;;9.80;97.30;;;;;;5018957;28;20483;-70
2023/10/02 06:12:12;;;;;;;10.23;4.83;;;9.70;97.60;;;;;;5009217;28;20565;-70
2023/10/02 06:14:39;;;;;;;12.13;4.80;;;9.70;97.90;;;;;;5025176;28;20480;-71
2023/10/02 06:17:11;;;;;;;9.40;4.53;;;9.60;98.50;;;;;;5008158;28;20485;-70
2023/10/02 06:19:44;;;;;;;6.60;4.20;;;9.60;98.70;;;;;;5009157;28;20474;-71
2023/10/02 06:22:15;;;;;;;36.57;6.20;;;9.60;99.10;;;;;;4990163;28;20511;-70
2023/10/02 06:24:43;;;;;;;8.37;3.50;;;9.60;99.30;;;;;;5015386;28;20500;-70
2023/10/02 06:27:17;;;;;;;11.57;4.53;;;9.70;99.40;;;;;;5022212;28;20500;-71
2023/10/02 06:29:47;;;;;;;8.97;4.47;;;9.80;99.30;;;;;;5034895;28;20494;-69
2023/10/02 06:32:19;;;;;;;6.87;3.60;;;9.80;99.30;;;;;;5015429;28;20971;-69
2023/10/02 06:34:50;;;;;;;8.67;3.80;;;10.00;98.80;;;;;;5024755;28;20490;-69
2023/10/02 06:37:19;;;;;;;18.97;5.23;;;10.70;99.60;;;;;;5018796;28;20498;-69
2023/10/02 06:40:02;;;;;;;7.43;3.97;;;11.40;99.90;;;;;;5028645;28;20534;-70
2023/10/02 06:42:30;;;;;;;10.13;4.60;;;12.70;98.00;;;;;;5011078;28;20484;-70
2023/10/02 06:45:01;;;;;;;11.70;5.60;;;13.50;97.10;;;;;;5025701;28;21022;-71
2023/10/02 06:47:30;;;;;;;19.10;6.40;;;14.60;96.10;;;;;;5028261;28;20570;-70
2023/10/02 06:50:21;;;;;;;16.63;5.83;;;15.50;94.10;;;;;;5018070;28;20487;-70
2023/10/02 06:52:49;;;;;;;18.23;6.67;;;16.40;93.50;;;;;;5003586;28;20489;-71
2023/10/02 06:55:17;;;;;;;15.40;5.97;;;16.90;92.80;;;;;;5031033;28;20480;-71
2023/10/02 06:57:49;;;;;;;12.83;6.37;;;18.00;92.30;;;;;;4999537;28;20917;-71
2023/10/02 07:00:19;;;;;;;10.33;5.70;;;18.40;91.70;;;;;;5019025;28;20468;-70
2023/10/02 07:02:56;;;;;;;14.33;5.77;;;19.30;91.80;;;;;;5006175;28;20530;-71
2023/10/02 07:05:27;;;;;;;13.17;5.27;;;20.00;90.50;;;;;;5007144;28;21028;-70
2023/10/02 07:07:59;;;;;;;13.97;5.40;;;20.30;90.20;;;;;;5006521;28;20473;-71
2023/10/02 07:10:25;;;;;;;20.37;5.63;;;21.60;89.10;;;;;;4992435;28;20486;-70
2023/10/02 07:12:54;;;;;;;11.37;6.50;;;22.30;88.20;;;;;;4991315;28;20484;-71
2023/10/02 07:15:22;;;;;;;10.50;5.60;;;23.30;86.80;;;;;;5002329;28;20857;-71
2023/10/02 07:17:50;;;;;;;15.40;6.87;;;24.00;85.70;;;;;;5007332;28;20487;-71
2023/10/02 07:20:19;;;;;;;16.60;5.83;;;24.70;84.10;;;;;;4997818;28;20481;-70
2023/10/02 07:22:48;;;;;;;7.17;4.50;;;25.40;82.20;;;;;;5008354;28;20539;-72
2023/10/02 07:25:20;;;;;;;15.57;6.40;;;25.80;81.70;;;;;;5008804;28;20478;-73
2023/10/02 07:27:48;;;;;;;6.90;5.37;;;26.10;81.00;;;;;;5013903;28;20484;-72
2023/10/02 07:30:24;;;;;;;6.20;4.97;;;26.30;80.40;;;;;;5010276;28;21518;-72
2023/10/02 07:32:53;;;;;;;13.53;5.77;;;26.80;79.10;;;;;;5000419;28;20899;-73
2023/10/02 07:35:22;;;;;;;12.27;5.63;;;27.10;79.10;;;;;;5015918;28;20598;-72
2023/10/02 07:37:58;;;;;;;20.60;7.63;;;26.80;78.60;;;;;;5031531;28;20573;-72
2023/10/02 07:40:27;;;;;;;10.60;6.20;;;26.70;78.80;;;;;;5035515;28;20961;-72
2023/10/02 07:42:54;;;;;;;11.97;5.73;;;26.70;79.50;;;;;;4997906;28;20504;-72
2023/10/02 07:45:25;;;;;;;19.57;6.47;;;;;;;;;;4971122;28;20486;-71
2023/10/02 07:48:12;;;;;;;18.07;7.03;;;26.60;80.30;;;;;;5002484;28;20531;-73
2023/10/02 07:50:41;;;;;;;11.50;6.40;;;26.60;80.00;;;;;;4998553;28;20579;-72
2023/10/02 07:53:09;;;;;;;14.17;6.33;;;25.90;80.70;;;;;;5012405;28;20505;-72
2023/10/02 07:55:40;;;;;;;11.83;6.70;;;25.80;83.30;;;;;;5004599;28;20477;-72
2023/10/02 07:58:08;;;;;;;12.47;6.70;;;;;;;;;;4998514;28;20989;-72
2023/10/02 08:00:37;;;;;;;22.23;6.57;;;25.40;83.60;;;;;;5015978;28;21083;-72
2023/10/02 08:03:09;;;;;;;15.10;7.70;;;25.30;85.70;;;;;;4993485;28;21048;-73
2023/10/02 08:05:38;;;;;;;18.43;6.77;;;25.10;85.90;;;;;;5016591;28;20452;-74
2023/10/02 08:08:09;;;;;;;10.47;6.00;;;25.00;85.70;;;;;;4990853;28;21523;-72
2023/10/02 08:10:49;;;;;;;14.13;7.27;;;24.70;85.60;;;;;;5017880;28;20787;-72
2023/10/02 08:13:16;;;;;;;12.13;6.23;;;24.70;88.10;;;;;;4977769;28;20464;-72
2023/10/02 08:15:44;;;;;;;17.53;6.50;;;24.60;88.20;;;;;;5001931;28;20572;-71
2023/10/02 08:18:17;;;;;;;16.80;7.23;;;24.30;87.90;;;;;;4993564;28;20862;-72
2023/10/02 08:20:45;;;;;;;13.67;7.07;;;24.00;89.60;;;;;;5003136;28;21126;-71
2023/10/02 08:23:21;;;;;;;13.07;6.10;;;23.50;90.40;;;;;;5008367;28;20481;-72
2023/10/02 08:26:02;;;;;;;30.63;7.83;;;23.40;91.10;;;;;;5001004;28;20551;-72
2023/10/02 08:28:30;;;;;;;17.03;5.80;;;23.40;91.20;;;;;;4992836;28;20539;-71
2023/10/02 08:31:01;;;;;;;25.63;7.20;;;23.50;91.20;;;;;;4989518;28;20487;-72
2023/10/02 08:33:30;;;;;;;25.60;7.30;;;23.60;91.70;;;;;;4991512;28;20478;-73
2023/10/02 08:35:57;;;;;;;15.50;7.80;;;;;;;;;;4992798;28;20478;-70
2023/10/02 08:38:25;;;;;;;15.07;6.77;;;23.60;90.90;;;;;;4999303;28;20554;-72
2023/10/02 08:40:58;;;;;;;14.17;6.20;;;;;;;;;;5008996;28;20456;-72
2023/10/02 08:43:25;;;;;;;18.20;7.43;;;23.90;91.60;;;;;;5014604;28;20480;-72
2023/10/02 08:45:52;;;;;;;11.60;7.33;;;24.00;92.20;;;;;;5003403;28;20867;-73
2023/10/02 08:48:20;;;;;;;17.60;6.27;;;24.00;91.60;;;;;;4998504;28;20493;-72
2023/10/02 08:50:48;;;;;;;14.07;7.67;;;24.00;92.50;;;;;;4998550;28;20448;-73
2023/10/02 08:53:20;;;;;;;20.73;7.03;;;24.00;92.60;;;;;;5011425;28;20910;-72
2023/10/02 08:55:54;;;;;;;16.10;7.20;;;24.20;93.40;;;;;;5001512;28;20503;-72
2023/10/02 08:58:27;;;;;;;20.60;7.27;;;24.20;92.70;;;;;;5006955;28;20559;-72
2023/10/02 09:01:17;;;;;;;31.63;7.87;;;24.30;92.60;;;;;;4998502;28;20456;-73
2023/10/02 09:04:21;;;;;;;12.00;6.87;;;24.20;92.90;;;;;;5011897;28;20473;-71
2023/10/02 09:06:49;;;;;;;14.53;7.80;;;24.20;92.40;;;;;;4995790;28;20490;-73
2023/10/02 09:09:26;;;;;;;43.43;7.87;;;24.30;92.50;;;;;;5014303;28;20490;-72
2023/10/02 09:11:57;;;;;;;15.40;6.63;;;24.20;92.50;;;;;;4994459;28;20481;-71
2023/10/02 09:17:24;;;;;;;24.73;7.60;;;24.10;93.50;;;;;;5032790;27;20577;-73
2023/10/02 09:20:00;;;;;;;12.40;6.93;;;24.10;93.20;;;;;;5031084;28;20602;-73
2023/10/02 09:22:28;;;;;;;24.13;7.83;;;24.30;92.50;;;;;;5036233;28;20588;-71
2023/10/02 09:25:15;;;;;;;16.33;7.30;;;24.40;93.90;;;;;;5029910;28;20454;-71
2023/10/02 09:27:56;;;;;;;32.63;7.47;;;24.30;92.40;;;;;;5022443;28;20482;-74
2023/10/02 09:30:36;;;;;;;24.30;7.83;;;24.40;93.10;;;;;;5029884;28;20479;-71
2023/10/02 09:33:14;;;;;;;19.40;8.20;;;24.50;93.20;;;;;;5027735;28;20475;-71
2023/10/02 09:35:43;;;;;;;23.63;7.63;;;24.80;92.60;;;;;;5018172;28;20976;-72
2023/10/02 09:38:13;;;;;;;14.67;6.60;;;24.90;92.70;;;;;;5027162;28;20491;-71
2023/10/02 09:40:58;;;;;;;23.10;8.13;;;25.10;92.70;;;;;;5031926;28;20821;-72
2023/10/02 09:43:27;;;;;;;19.73;7.80;;;25.30;91.80;;;;;;5022639;28;20553;-71
2023/10/02 09:45:58;;;;;;;19.10;7.63;;;25.50;92.10;;;;;;5028125;28;20449;-69
2023/10/02 09:49:01;;;;;;;43.47;9.37;;;25.70;92.20;;;;;;5044071;28;20805;-70
2023/10/02 09:51:45;;;;;;;20.10;8.80;;;25.90;91.60;;;;;;5025142;28;20513;-69
2023/10/02 09:54:21;;;;;;;18.07;7.47;;;26.20;91.90;;;;;;5035357;28;20936;-68
2023/10/02 09:57:05;;;;;;;24.10;7.27;;;26.40;91.30;;;;;;5025882;28;20439;-69
2023/10/02 09:59:37;;;;;;;21.60;8.50;;;26.50;90.90;;;;;;5021318;28;20487;-69
2023/10/02 10:05:45;;;;;;;17.77;7.70;;;26.40;90.40;;;;;;5023981;28;20509;-70
2023/10/02 10:08:19;;;;;;;14.70;7.20;;;26.70;91.80;;;;;;5009033;28;20601;-69
2023/10/02 10:10:49;;;;;;;24.03;7.60;;;27.10;90.80;;;;;;5023055;28;20479;-69
2023/10/02 10:13:34;;;;;;;20.53;8.90;;;27.10;87.60;;;;;;5030793;28;21110;-69
2023/10/02 10:16:35;;;;;;;49.83;9.50;;;27.10;88.40;;;;;;5029284;28;20504;-69
2023/10/02 10:19:27;;;;;;;30.07;9.20;;;27.20;87.00;;;;;;5023046;28;20453;-69
2023/10/02 10:21:57;;;;;;;18.57;7.73;;;27.00;86.40;;;;;;5038343;28;20539;-70
2023/10/02 10:25:22;;;;;;;26.90;9.07;;;26.70;85.90;;;;;;5018436;28;21014;-70
2023/10/02 10:27:54;;;;;;;29.73;8.70;;;26.50;87.60;;;;;;5019196;28;20475;-70
2023/10/02 10:30:44;;;;;;;15.03;8.10;;;26.40;87.90;;;;;;5024371;28;20476;-70
2023/10/02 10:33:40;;;;;;;16.97;7.13;;;26.40;85.70;;;;;;5016759;28;20459;-69
2023/10/02 10:36:29;;;;;;;18.57;8.60;;;;;;;;;;5016184;28;20480;-69
2023/10/02 10:38:57;;;;;;;22.80;7.30;;;26.50;84.50;;;;;;5007668;28;20731;-69
2023/10/02 10:41:35;;;;;;;19.93;7.30;;;26.60;85.60;;;;;;5021246;28;20459;-69
2023/10/02 10:44:06;;;;;;;23.17;9.93;;;26.50;82.30;;;;;;5006568;28;20964;-70
2023/10/02 10:46:37;;;;;;;22.03;10.27;;;26.40;82.60;;;;;;5012433;28;20447;-70
2023/10/02 10:49:08;;;;;;;18.73;9.77;;;26.30;82.90;;;;;;5020377;28;20455;-69
2023/10/02 10:51:35;;;;;;;16.10;6.93;;;26.60;83.60;;;;;;5001127;28;20474;-69
2023/10/02 10:54:19;;;;;;;17.80;9.00;;;26.80;84.50;;;;;;5018542;28;20455;-68
2023/10/02 10:56:57;;;;;;;15.10;6.47;;;27.00;86.60;;;;;;5009101;28;20481;-68
2023/10/02 10:59:32;;;;;;;44.13;9.50;;;27.10;86.80;;;;;;5025683;28;20455;-69
2023/10/02 11:04:47;;;;;;;31.07;8.37;;;27.50;81.80;;;;;;5015749;28;20551;-69
2023/10/02 11:07:22;;;;;;;22.27;8.27;;;27.60;83.50;;;;;;5020617;28;20470;-69
2023/10/02 11:12:54;;;;;;;20.30;9.70;;;27.80;83.00;;;;;;4993212;28;20457;-69
2023/10/02 11:15:44;;;;;;;22.13;9.67;;;27.90;82.30;;;;;;5023891;28;20458;-70
2023/10/02 11:18:23;;;;;;;32.60;9.27;;;27.80;84.20;;;;;;4997618;28;20462;-69
2023/10/02 11:20:51;;;;;;;23.80;9.00;;;27.60;81.10;;;;;;5016817;28;20480;-69
2023/10/02 11:23:23;;;;;;;16.67;9.57;;;;;;;;;;5002430;28;20480;-69
2023/10/02 11:25:58;;;;;;;37.53;9.43;;;27.60;81.80;;;;;;5011041;28;20447;-70
2023/10/02 11:28:31;;;;;;;21.77;9.30;;;27.90;84.00;;;;;;5016085;28;21248;-69
2023/10/02 11:31:29;;;;;;;23.30;9.43;;;27.70;79.90;;;;;;5004896;28;20479;-70
2023/10/02 11:34:08;;;;;;;25.93;9.10;;;27.80;83.80;;;;;;5006765;28;20452;-70
2023/10/02 11:36:37;;;;;;;25.87;9.43;;;27.80;82.60;;;;;;5016459;28;20476;-70
2023/10/02 11:39:09;;;;;;;30.17;9.40;;;27.70;80.30;;;;;;4998540;28;20529;-71
2023/10/02 11:41:38;;;;;;;24.13;8.47;;;27.60;78.70;;;;;;5026122;28;20538;-70
2023/10/02 11:44:06;;;;;;;16.27;8.33;;;27.70;83.10;;;;;;5006493;28;20489;-70
2023/10/02 11:46:33;;;;;;;32.83;10.83;;;27.90;79.70;;;;;;5009107;28;20530;-70
2023/10/02 11:49:00;;;;;;;17.90;8.47;;;28.20;82.20;;;;;;5014725;28;20480;-67
2023/10/02 11:51:28;;;;;;;20.63;8.87;;;28.20;81.90;;;;;;5005437;28;20969;-67
2023/10/02 11:53:59;;;;;;;21.83;9.60;;;28.50;81.30;;;;;;5012660;28;20480;-67
2023/10/02 11:56:27;;;;;;;19.03;8.77;;;28.30;79.10;;;;;;5012698;28;20543;-65
2023/10/02 11:58:56;;;;;;;18.73;9.63;;;28.40;80.90;;;;;;5015349;28;20443;-68
2023/10/02 12:01:23;;;;;;;17.07;9.17;;;28.20;79.10;;;;;;5011245;28;20889;-67
2023/10/02 12:03:51;;;;;;;20.87;9.13;;;28.10;79.40;;;;;;5005949;28;20438;-68
2023/10/02 12:06:19;;;;;;;39.03;9.33;;;28.20;84.30;;;;;;5019492;28;20491;-68
2023/10/02 12:08:49;;;;;;;22.60;9.97;;;28.20;79.60;;;;;;5015375;28;20447;-67
2023/10/02 12:11:15;;;;;;;19.60;8.90;;;28.40;79.70;;;;;;5009791;28;20554;-68
2023/10/02 12:13:44;;;;;;;22.40;8.50;;;28.50;79.40;;;;;;5001031;28;20842;-68
2023/10/02 12:16:12;;;;;;;32.67;10.03;;;28.50;80.40;;;;;;5017958;28;20526;-68
2023/10/02 12:18:40;;;;;;;30.97;10.47;;;28.40;78.10;;;;;;5003421;28;20896;-68
2023/10/02 12:21:11;;;;;;;20.67;9.57;;;;;;;;;;5010163;28;20483;-68
2023/10/02 12:23:40;;;;;;;18.90;10.57;;;28.30;79.90;;;;;;5005409;28;20502;-68
2023/10/02 12:26:09;;;;;;;24.47;11.03;;;28.30;79.60;;;;;;5013597;28;20497;-68
2023/10/02 12:28:37;;;;;;;20.10;8.57;;;28.60;79.60;;;;;;5005119;28;20459;-67
2023/10/02 12:31:09;;;;;;;21.13;10.13;;;28.70;79.60;;;;;;5024371;28;20823;-67
2023/10/02 12:33:38;;;;;;;35.03;10.10;;;29.00;78.20;;;;;;5013080;28;20455;-68
2023/10/02 12:36:17;;;;;;;21.37;10.23;;;29.00;77.80;;;;;;5007533;28;20481;-68
2023/10/02 12:38:44;;;;;;;24.50;9.67;;;28.90;79.00;;;;;;5009289;28;20455;-66
2023/10/02 12:41:13;;;;;;;23.40;9.63;;;29.00;77.60;;;;;;5006035;28;21192;-66
2023/10/02 12:43:39;;;;;;;20.50;8.70;;;29.10;76.80;;;;;;5005314;28;20529;-67
2023/10/02 12:46:06;;;;;;;26.77;10.87;;;29.10;79.30;;;;;;5019824;28;20475;-67
2023/10/02 12:48:34;;;;;;;27.07;10.97;;;29.20;76.70;;;;;;5002114;28;20474;-66
2023/10/02 12:51:06;;;;;;;28.47;10.20;;;29.30;75.80;;;;;;5000545;28;20891;-66
2023/10/02 12:53:35;;;;;;;23.03;9.30;;;29.40;76.00;;;;;;5001494;28;20488;-66
2023/10/02 12:56:02;;;;;;;26.10;9.53;;;;;;;;;;4991642;28;20456;-67
2023/10/02 12:58:29;;;;;;;25.80;11.00;;;29.40;76.80;;;;;;5008330;28;20578;-67
2023/10/02 13:00:56;;;;;;;22.30;9.10;;;29.30;76.00;;;;;;5001533;28;21202;-67
2023/10/02 13:03:24;;;;;;;28.87;9.27;;;29.50;77.60;;;;;;5011484;28;20964;-67
2023/10/02 13:05:51;;;;;;;17.37;10.17;;;;;;;;;;5011344;28;20448;-67
2023/10/02 13:08:20;;;;;;;54.70;10.27;;;29.70;79.20;;;;;;5011294;28;20511;-67
2023/10/02 13:10:48;;;;;;;23.83;9.63;;;29.70;73.90;;;;;;4975627;28;20551;-67
2023/10/02 13:13:14;;;;;;;24.70;9.97;;;29.80;76.40;;;;;;5000503;28;20853;-67
2023/10/02 13:15:41;;;;;;;29.83;11.10;;;29.90;76.00;;;;;;5012020;28;20493;-66
2023/10/02 13:18:08;;;;;;;44.47;11.03;;;30.10;78.60;;;;;;4995854;28;20504;-66
2023/10/02 13:20:35;;;;;;;28.03;11.50;;;29.90;74.00;;;;;;5027918;28;20576;-67
2023/10/02 13:23:02;;;;;;;19.47;9.00;;;29.90;75.20;;;;;;5012052;28;20505;-66
2023/10/02 13:25:30;;;;;;;22.23;9.30;;;29.90;77.80;;;;;;5005080;28;20459;-66
2023/10/02 13:27:59;;;;;;;22.37;9.87;;;29.80;75.70;;;;;;5013755;28;20444;-68
2023/10/02 13:30:29;;;;;;;19.97;9.40;;;29.70;76.60;;;;;;5006218;28;20495;-67
2023/10/02 13:32:56;;;;;;;25.53;10.60;;;29.90;78.60;;;;;;5009200;28;21002;-66
2023/10/02 13:35:23;;;;;;;24.17;9.90;;;29.90;77.20;;;;;;5011683;28;20597;-68
2023/10/02 13:37:50;;;;;;;37.73;9.93;;;30.00;77.70;;;;;;5014762;28;20472;-67
2023/10/02 13:40:26;;;;;;;17.33;8.70;;;30.00;78.40;;;;;;5011152;28;21005;-67
2023/10/02 13:42:54;;;;;;;49.60;11.30;;;30.00;77.30;;;;;;5016370;28;20487;-66
2023/10/02 13:45:21;;;;;;;23.47;10.07;;;30.10;80.00;;;;;;5008353;28;20828;-67